createdAt,value
2023-01-18T00:03:35.984Z,66.82
2023-01-18T00:08:38.816Z,66.59
2023-01-18T00:13:40.437Z,66.33
2023-01-18T00:18:42.898Z,66.11
2023-01-18T00:23:44.538Z,66.70
2023-01-18T00:28:46.143Z,66.64
2023-01-18T00:33:49.304Z,66.39
2023-01-18T00:38:51.611Z,66.55
2023-01-18T00:43:53.821Z,66.58
2023-01-18T00:48:57.256Z,66.33
2023-01-18T00:53:58.810Z,67.02
2023-01-18T00:59:00.355Z,66.93
2023-01-18T01:04:20.295Z,66.67
2023-01-18T01:09:24.772Z,66.90
2023-01-18T01:14:45.290Z,66.69
2023-01-18T01:20:05.159Z,66.16
2023-01-18T01:25:25.447Z,67.01
2023-01-18T01:30:27.038Z,67.33
2023-01-18T01:35:28.612Z,67.82
2023-01-18T01:40:30.163Z,68.24
2023-01-18T01:45:32.271Z,68.99
2023-01-18T01:50:39.559Z,69.80
2023-01-18T01:55:41.717Z,69.59
2023-01-18T02:00:43.931Z,68.67
2023-01-18T02:05:48.000Z,69.14
2023-01-18T02:10:50.506Z,70.83
2023-01-18T02:16:10.573Z,69.32
2023-01-18T02:21:20.790Z,68.73
2023-01-18T02:26:30.575Z,69.06
2023-01-18T02:32:10.529Z,69.95
2023-01-18T02:37:30.766Z,70.36
2023-01-18T02:42:52.762Z,69.92
2023-01-18T02:47:54.898Z,69.98
2023-01-18T02:52:56.796Z,70.13
2023-01-18T02:58:06.713Z,70.72
2023-01-18T03:03:10.909Z,71.10
2023-01-18T03:08:20.813Z,71.02
2023-01-18T03:13:47.142Z,71.57
2023-01-18T03:19:00.690Z,70.51
2023-01-18T03:24:04.710Z,70.47
2023-01-18T03:29:25.184Z,70.51
2023-01-18T03:34:34.222Z,70.28
2023-01-18T03:39:47.634Z,70.68
2023-01-18T03:45:15.822Z,70.05
2023-01-18T03:50:17.867Z,70.58
2023-01-18T03:55:36.926Z,71.84
2023-01-18T04:00:39.570Z,71.44
2023-01-18T04:05:41.512Z,72.35
2023-01-18T04:10:43.175Z,73.83
2023-01-18T04:15:44.765Z,72.40
2023-01-18T04:20:46.387Z,75.60
2023-01-18T04:25:51.225Z,74.23
2023-01-18T04:30:54.544Z,74.96
2023-01-18T04:35:56.123Z,75.36
2023-01-18T04:41:02.767Z,74.93
2023-01-18T04:46:04.472Z,77.15
2023-01-18T04:51:11.579Z,76.92
2023-01-18T04:56:13.190Z,79.15
2023-01-18T05:01:16.616Z,79.48
2023-01-18T05:06:19.934Z,78.34
2023-01-18T05:11:24.196Z,79.19
2023-01-18T05:16:25.815Z,79.55
2023-01-18T05:21:28.591Z,80.47
2023-01-18T05:26:30.296Z,80.25
2023-01-18T05:31:32.156Z,81.79
2023-01-18T05:36:34.023Z,81.49
2023-01-18T05:41:35.733Z,81.41
2023-01-18T05:46:37.294Z,80.98
2023-01-18T05:51:38.854Z,81.15
2023-01-18T05:56:42.120Z,82.09
2023-01-18T06:01:43.724Z,82.33
2023-01-18T06:06:45.347Z,82.90
2023-01-18T06:11:46.939Z,82.96
2023-01-18T06:16:48.632Z,83.02
2023-01-18T06:21:50.240Z,83.12
2023-01-18T06:26:51.810Z,82.73
2023-01-18T06:31:53.769Z,82.84
2023-01-18T06:36:55.462Z,82.61
2023-01-18T06:41:57.461Z,83.31
2023-01-18T06:46:59.150Z,83.67
2023-01-18T06:52:00.765Z,83.75
2023-01-18T06:57:02.421Z,83.59
2023-01-18T07:02:04.951Z,83.79
2023-01-18T07:07:06.719Z,84.01
2023-01-18T07:12:08.262Z,84.18
2023-01-18T07:17:10.107Z,84.05
2023-01-18T07:22:13.165Z,85.14
2023-01-18T07:27:14.716Z,84.58
2023-01-18T07:32:16.377Z,84.53
2023-01-18T07:37:18.068Z,85.06
2023-01-18T07:42:19.718Z,85.18
2023-01-18T07:47:21.520Z,84.60
2023-01-18T07:52:23.159Z,84.77
2023-01-18T07:57:25.769Z,85.00
2023-01-18T08:02:27.433Z,84.88
2023-01-18T08:07:32.308Z,86.05
2023-01-18T08:12:33.954Z,84.84
2023-01-18T08:17:35.578Z,86.07
2023-01-18T08:22:37.226Z,86.25
2023-01-18T08:27:38.870Z,84.43
2023-01-18T08:32:40.943Z,84.18
2023-01-18T08:37:42.522Z,82.47
2023-01-18T08:42:44.100Z,82.51
2023-01-18T08:47:45.693Z,82.47
2023-01-18T08:52:47.243Z,82.88
2023-01-18T08:57:49.604Z,82.72
2023-01-18T09:02:51.703Z,82.92
2023-01-18T09:07:54.156Z,82.73
2023-01-18T09:12:56.310Z,83.94
2023-01-18T09:17:58.488Z,83.18
2023-01-18T09:23:04.793Z,83.38
2023-01-18T09:28:06.566Z,82.26
2023-01-18T09:33:08.170Z,82.25
2023-01-18T09:38:12.328Z,82.07
2023-01-18T09:43:17.455Z,82.63
2023-01-18T09:48:30.024Z,82.48
2023-01-18T09:53:57.673Z,83.30
2023-01-18T09:59:17.993Z,83.39
2023-01-18T10:04:39.822Z,83.30
2023-01-18T10:09:50.115Z,84.02
2023-01-18T10:15:07.803Z,83.87
2023-01-18T10:20:16.907Z,83.35
2023-01-18T10:25:47.183Z,83.44
2023-01-18T10:30:58.112Z,83.26
2023-01-18T10:36:09.624Z,83.58
2023-01-18T10:41:19.054Z,84.55
2023-01-18T10:46:21.191Z,82.54
2023-01-18T10:51:36.941Z,82.92
2023-01-18T10:56:39.933Z,82.25
2023-01-18T11:01:53.137Z,81.94
2023-01-18T11:06:56.804Z,82.09
2023-01-18T11:12:37.046Z,82.58
2023-01-18T11:17:39.173Z,83.16
2023-01-18T11:22:59.835Z,82.67
2023-01-18T11:28:02.443Z,82.35
2023-01-18T11:33:04.326Z,82.37
2023-01-18T11:38:10.550Z,82.60
2023-01-18T11:43:24.747Z,81.94
2023-01-18T11:48:48.522Z,82.58
2023-01-18T11:53:58.837Z,82.32
2023-01-18T11:59:01.911Z,83.08
2023-01-18T12:04:12.286Z,82.93
2023-01-18T12:09:29.145Z,81.84
2023-01-18T12:14:37.039Z,84.03
2023-01-18T12:19:44.880Z,82.58
2023-01-18T12:25:25.658Z,84.17
2023-01-18T12:30:51.911Z,83.36
2023-01-18T12:36:15.333Z,83.25
2023-01-18T12:41:30.995Z,82.60
2023-01-18T12:47:03.143Z,82.64
2023-01-18T12:52:18.196Z,82.10
2023-01-18T12:57:21.400Z,82.49
2023-01-18T13:02:45.591Z,83.17
2023-01-18T13:07:55.307Z,82.92
2023-01-18T13:12:57.667Z,83.51
2023-01-18T13:18:08.074Z,83.63
2023-01-18T13:23:39.342Z,83.90
2023-01-18T13:28:41.117Z,83.90
2023-01-18T13:33:47.066Z,84.07
2023-01-18T13:39:03.397Z,83.40
2023-01-18T13:44:13.149Z,83.18
2023-01-18T13:49:37.094Z,83.17
2023-01-18T13:54:39.091Z,83.24
2023-01-18T13:59:46.656Z,83.96
2023-01-18T14:05:03.686Z,83.13
2023-01-18T14:10:08.184Z,83.46
2023-01-18T14:15:23.740Z,83.04
2023-01-18T14:20:34.531Z,82.93
2023-01-18T14:25:43.261Z,84.76
2023-01-18T14:30:46.360Z,83.30
2023-01-18T14:35:58.322Z,83.03
2023-01-18T14:41:05.129Z,84.41
2023-01-18T14:46:24.708Z,85.03
2023-01-18T14:51:28.166Z,84.48
2023-01-18T14:56:33.238Z,84.48
2023-01-18T15:01:37.905Z,85.15
2023-01-18T15:06:45.123Z,85.44
2023-01-18T15:11:47.739Z,85.45
2023-01-18T15:16:52.092Z,86.19
2023-01-18T15:21:53.803Z,85.61
2023-01-18T15:26:57.500Z,85.90
2023-01-18T15:32:20.140Z,85.52
2023-01-18T15:37:37.459Z,85.41
2023-01-18T15:42:43.089Z,85.50
2023-01-18T15:47:52.791Z,85.33
2023-01-18T15:53:06.179Z,86.03
2023-01-18T15:58:12.265Z,85.29
2023-01-18T16:03:21.762Z,85.94
2023-01-18T16:08:23.874Z,86.13
2023-01-18T16:13:38.387Z,85.41
2023-01-18T16:19:31.741Z,85.72
2023-01-18T16:24:46.226Z,85.53
2023-01-18T16:29:49.988Z,85.41
2023-01-18T16:34:54.490Z,87.06
2023-01-18T16:39:56.301Z,85.73
2023-01-18T16:44:57.947Z,86.09
2023-01-18T16:49:59.628Z,87.36
2023-01-18T16:55:01.216Z,86.12
2023-01-18T17:00:16.082Z,87.17
2023-01-18T17:05:17.968Z,86.76
2023-01-18T17:10:31.596Z,86.06
2023-01-18T17:15:34.664Z,85.65
2023-01-18T17:20:36.318Z,86.07
2023-01-18T17:25:38.078Z,85.78
2023-01-18T17:30:40.819Z,86.79
2023-01-18T17:35:42.723Z,85.28
2023-01-18T17:40:44.719Z,86.25
2023-01-18T17:45:59.627Z,86.37
2023-01-18T17:51:07.618Z,85.21
2023-01-18T17:56:14.901Z,84.87
2023-01-18T18:01:17.235Z,85.52
2023-01-18T18:06:30.346Z,85.85
2023-01-18T18:11:32.753Z,85.37
2023-01-18T18:16:42.605Z,84.87
2023-01-18T18:21:45.806Z,85.81
2023-01-18T18:26:47.525Z,85.61
2023-01-18T18:31:49.220Z,84.97
2023-01-18T18:36:50.912Z,85.55
2023-01-18T18:41:53.258Z,84.73
2023-01-18T18:46:54.850Z,84.42
2023-01-18T18:51:56.535Z,84.82
2023-01-18T18:57:00.065Z,84.97
2023-01-18T19:02:01.720Z,84.78
2023-01-18T19:07:03.360Z,84.59
2023-01-18T19:12:05.033Z,84.61
2023-01-18T19:17:07.301Z,84.12
2023-01-18T19:22:08.934Z,83.65
2023-01-18T19:27:10.686Z,84.87
2023-01-18T19:32:12.357Z,84.12
2023-01-18T19:37:14.018Z,84.04
2023-01-18T19:42:15.573Z,83.71
2023-01-18T19:47:17.113Z,84.23
2023-01-18T19:52:18.681Z,84.47
2023-01-18T19:57:20.247Z,83.92
2023-01-18T20:02:22.519Z,83.56
2023-01-18T20:07:24.289Z,83.34
2023-01-18T20:12:29.233Z,83.20
2023-01-18T20:17:30.910Z,83.77
2023-01-18T20:22:32.512Z,83.31
2023-01-18T20:27:34.193Z,83.86
2023-01-18T20:32:35.812Z,84.18
2023-01-18T20:37:37.554Z,84.58
2023-01-18T20:42:39.847Z,83.59
2023-01-18T20:47:41.425Z,84.34
2023-01-18T20:52:43.643Z,83.85
2023-01-18T20:57:45.932Z,84.39
2023-01-18T21:02:48.565Z,84.20
2023-01-18T21:07:50.454Z,84.32
2023-01-18T21:12:52.067Z,83.75
2023-01-18T21:17:54.156Z,83.98
2023-01-18T21:22:59.655Z,84.07
2023-01-18T21:28:02.615Z,84.53
2023-01-18T21:33:04.545Z,84.79
2023-01-18T21:38:07.299Z,84.50
2023-01-18T21:43:35.304Z,84.62
2023-01-18T21:48:37.577Z,85.10
2023-01-18T21:54:00.857Z,85.12
2023-01-18T21:59:03.037Z,85.02
2023-01-18T22:04:31.925Z,85.65
2023-01-18T22:09:33.651Z,85.17
2023-01-18T22:14:35.198Z,85.35
2023-01-18T22:19:36.782Z,84.25
2023-01-18T22:24:39.052Z,82.78
2023-01-18T22:29:40.736Z,83.01
2023-01-18T22:34:42.315Z,83.35
2023-01-18T22:39:43.845Z,83.48
2023-01-18T22:44:45.426Z,83.76
2023-01-18T22:49:47.138Z,83.56
2023-01-18T22:54:48.716Z,83.08
2023-01-18T22:59:50.283Z,82.76
2023-01-18T23:04:52.070Z,83.20
2023-01-18T23:09:53.624Z,82.24
2023-01-18T23:15:13.920Z,80.02
2023-01-18T23:20:15.548Z,80.17
2023-01-18T23:25:17.196Z,79.79
2023-01-18T23:30:19.121Z,80.44
2023-01-18T23:35:20.673Z,80.63
2023-01-18T23:40:40.932Z,79.55
2023-01-18T23:46:01.896Z,79.20
2023-01-18T23:51:22.826Z,80.90
2023-01-18T23:56:24.536Z,79.68
